Time;durP1;ratioP1;P1;durP2;ratioP2;P2;SDS_P1;SDS_P2;PMS_P1;PMS_P2;Temp;Humidity;BMP_temperature;BMP_pressure;BME280_temperature;BME280_humidity;BME280_pressure;Samples;Min_cycle;Max_cycle;Signal;HPM_P1;HPM_P2
2021/04/20 00:02:22;;;;;;;55.45;36.28;;;;;;;5.99;97.87;101441.59;5042181;28;20131;-79
2021/04/20 00:04:48;;;;;;;56.10;34.97;;;;;;;6.01;97.40;101440.50;5041303;28;20045;-79
2021/04/20 00:07:14;;;;;;;52.22;34.75;;;;;;;6.02;96.99;101436.00;5047320;28;20090;-80
2021/04/20 00:09:42;;;;;;;58.75;36.67;;;;;;;6.03;96.96;101438.53;5031572;28;20049;-82
2021/04/20 00:12:08;;;;;;;56.40;36.28;;;;;;;6.05;96.88;101441.94;5041510;28;20053;-78
2021/04/20 00:14:33;;;;;;;54.78;35.15;;;;;;;6.02;97.10;101439.53;5049210;28;20055;-77
2021/04/20 00:16:59;;;;;;;61.60;38.30;;;;;;;6.03;97.42;101435.88;5049372;28;20037;-80
2021/04/20 00:19:24;;;;;;;58.40;36.05;;;;;;;6.08;97.27;101441.69;5041885;28;20114;-81
2021/04/20 00:21:50;;;;;;;57.70;36.10;;;;;;;6.08;97.80;101430.19;5028605;28;20083;-83
2021/04/20 00:24:15;;;;;;;55.75;36.05;;;;;;;6.05;97.81;101436.63;5039332;28;20048;-78
2021/04/20 00:26:41;;;;;;;57.25;35.15;;;;;;;6.05;98.69;101428.63;5031586;28;20080;-79
2021/04/20 00:29:06;;;;;;;54.03;35.47;;;;;;;6.10;97.76;101425.63;5047572;28;20041;-78
2021/04/20 00:31:34;;;;;;;59.08;37.85;;;;;;;6.16;98.51;101410.94;5047166;28;20041;-77
2021/04/20 00:33:59;;;;;;;58.78;38.42;;;;;;;6.17;99.53;101407.31;5030146;28;20040;-80
2021/04/20 00:36:26;;;;;;;55.15;34.60;;;;;;;6.17;99.77;101404.66;5042647;28;20049;-78
2021/04/20 00:38:51;;;;;;;58.65;37.50;;;;;;;6.28;97.42;101409.97;5044647;28;20033;-77
2021/04/20 00:41:17;;;;;;;58.80;37.80;;;;;;;6.36;97.51;101401.34;5025119;28;20052;-81
2021/04/20 00:43:45;;;;;;;60.20;38.05;;;;;;;6.38;97.81;101408.25;5033013;28;20052;-80
2021/04/20 00:46:14;;;;;;;59.65;38.30;;;;;;;6.40;97.76;101402.81;5048769;28;20091;-78
2021/04/20 00:48:46;;;;;;;65.60;41.80;;;;;;;6.34;98.50;101398.84;5041505;28;20044;-79
2021/04/20 00:51:13;;;;;;;64.00;38.72;;;;;;;6.31;99.27;101402.59;5038649;28;20131;-79
2021/04/20 00:53:40;;;;;;;63.03;40.25;;;;;;;6.30;99.79;101397.34;5041834;28;20057;-78
2021/04/20 00:56:06;;;;;;;60.30;38.42;;;;;;;6.29;100.00;101396.53;5011219;28;20076;-82
2021/04/20 00:58:32;;;;;;;63.30;37.70;;;;;;;6.36;99.06;101394.22;5022639;28;20103;-81
2021/04/20 01:00:59;;;;;;;57.85;37.97;;;;;;;6.41;99.13;101394.69;5022708;28;20044;-78
2021/04/20 01:03:25;;;;;;;61.85;39.53;;;;;;;6.52;99.28;101392.00;5022870;28;20383;-79
2021/04/20 01:05:51;;;;;;;64.00;39.45;;;;;;;6.51;98.66;101395.66;5013620;28;20037;-78
2021/04/20 01:08:22;;;;;;;62.47;37.70;;;;;;;6.46;99.20;101403.19;5004386;28;20061;-75
2021/04/20 01:10:51;;;;;;;64.88;40.58;;;;;;;6.43;98.56;101413.25;5006406;28;20038;-80
2021/04/20 01:13:17;;;;;;;62.53;38.80;;;;;;;6.41;99.39;101410.69;5001456;28;20188;-80
2021/04/20 01:15:49;;;;;;;64.30;38.45;;;;;;;6.31;100.00;101412.41;5024617;28;20120;-81
2021/04/20 01:18:22;;;;;;;66.07;41.67;;;;;;;6.34;100.00;101401.50;5008774;28;20041;-78
2021/04/20 01:20:50;;;;;;;66.50;41.47;;;;;;;6.43;100.00;101403.41;5015275;28;20053;-81
2021/04/20 01:23:26;;;;;;;68.40;43.17;;;;;;;6.50;99.58;101401.09;5021194;28;20041;-78
2021/04/20 01:25:55;;;;;;;69.30;42.83;;;;;;;6.54;100.00;101398.09;5021869;28;20809;-76
2021/04/20 01:28:21;;;;;;;71.82;45.10;;;;;;;6.58;100.00;101400.50;5019411;28;20049;-77
2021/04/20 01:30:47;;;;;;;67.22;42.58;;;;;;;6.59;100.00;101405.72;5022134;28;20123;-76
2021/04/20 01:33:13;;;;;;;71.80;43.40;;;;;;;6.67;99.87;101394.41;5025269;28;20045;-77
2021/04/20 01:35:39;;;;;;;67.55;43.42;;;;;;;6.70;100.00;101396.84;5028454;28;20041;-78
2021/04/20 01:38:06;;;;;;;66.15;41.42;;;;;;;6.77;99.40;101398.03;5025676;28;20042;-79
2021/04/20 01:40:32;;;;;;;69.47;42.70;;;;;;;6.82;98.33;101398.53;5017663;28;20087;-81
2021/04/20 01:43:01;;;;;;;67.78;42.53;;;;;;;6.85;98.60;101390.28;5037566;28;20041;-79
2021/04/20 01:45:29;;;;;;;63.55;40.38;;;;;;;6.91;98.60;101397.78;5025932;28;20534;-76
2021/04/20 01:47:55;;;;;;;68.20;42.72;;;;;;;6.92;99.15;101401.28;5017191;28;20065;-76
2021/04/20 01:50:25;;;;;;;70.40;44.65;;;;;;;6.95;98.64;101393.03;5036848;28;20133;-76
2021/04/20 01:52:52;;;;;;;66.40;43.03;;;;;;;6.98;97.99;101385.59;5037684;28;20053;-80
2021/04/20 01:55:20;;;;;;;69.53;43.50;;;;;;;7.00;97.71;101385.50;5019205;28;20132;-79
2021/04/20 01:57:49;;;;;;;66.65;41.47;;;;;;;7.03;98.08;101384.41;5021775;28;20048;-77
2021/04/20 02:00:17;;;;;;;66.32;43.00;;;;;;;7.08;98.44;101388.38;5022066;28;20136;-81
2021/04/20 02:02:45;;;;;;;65.57;42.13;;;;;;;7.11;99.33;101387.28;5021302;28;20060;-77
2021/04/20 02:05:12;;;;;;;63.90;40.92;;;;;;;7.14;97.24;101385.19;5033959;28;20454;-78
2021/04/20 02:07:39;;;;;;;67.70;43.50;;;;;;;7.14;97.97;101393.19;5020874;28;20402;-77
2021/04/20 02:10:07;;;;;;;66.07;42.45;;;;;;;7.18;98.86;101393.78;5041566;28;20153;-83
2021/04/20 02:12:44;;;;;;;65.47;42.15;;;;;;;7.18;97.92;101383.94;5042618;28;20045;-79
2021/04/20 02:15:12;;;;;;;68.65;44.47;;;;;;;7.21;97.88;101385.53;5022834;28;20075;-79
2021/04/20 02:17:38;;;;;;;67.07;43.47;;;;;;;7.23;98.01;101378.25;5044420;28;20477;-80
2021/04/20 02:20:06;;;;;;;66.90;42.70;;;;;;;7.24;98.29;101378.09;5045781;28;20380;-77
2021/04/20 02:22:37;;;;;;;70.03;43.83;;;;;;;7.30;97.80;101376.75;5025808;28;20044;-78
2021/04/20 02:25:07;;;;;;;66.50;41.63;;;;;;;7.36;96.77;101378.03;5043589;28;20041;-80
2021/04/20 02:27:35;;;;;;;62.33;39.17;;;;;;;7.37;96.14;101377.94;5039527;28;20042;-77
2021/04/20 02:30:00;;;;;;;60.75;39.80;;;;;;;7.33;96.33;101373.81;5020086;28;20128;-82
2021/04/20 02:32:26;;;;;;;66.18;43.83;;;;;;;7.35;96.29;101381.72;5040672;28;20132;-81
2021/04/20 02:34:52;;;;;;;62.25;41.03;;;;;;;7.34;96.04;101385.38;5041415;28;20041;-80
2021/04/20 02:37:21;;;;;;;68.18;42.35;;;;;;;7.27;96.74;101379.66;5047088;28;20052;-81
2021/04/20 02:39:48;;;;;;;67.40;42.28;;;;;;;7.18;96.60;101375.94;4998302;28;20577;-81
2021/04/20 02:42:14;;;;;;;68.97;43.50;;;;;;;7.18;96.78;101377.78;5030092;28;20104;-77
2021/04/20 02:44:40;;;;;;;68.32;44.28;;;;;;;7.19;97.15;101376.78;5039897;28;20591;-76
2021/04/20 02:47:05;;;;;;;68.88;43.35;;;;;;;7.17;96.53;101378.75;5044274;28;20045;-81
2021/04/20 02:49:31;;;;;;;67.90;43.80;;;;;;;7.11;97.55;101384.63;5029993;28;20592;-81
2021/04/20 02:51:56;;;;;;;70.45;44.05;;;;;;;7.08;96.74;101383.03;5029671;28;20072;-83
2021/04/20 02:54:22;;;;;;;69.82;42.85;;;;;;;7.01;97.28;101382.69;5002297;28;20041;-78
2021/04/20 02:56:48;;;;;;;71.72;44.78;;;;;;;6.99;97.30;101378.44;5044232;28;20044;-82
2021/04/20 02:59:15;;;;;;;69.93;43.65;;;;;;;6.96;98.66;101384.91;5045088;28;20484;-81
2021/04/20 03:01:44;;;;;;;70.28;45.17;;;;;;;6.96;98.08;101390.25;5042735;28;20044;-79
2021/04/20 03:04:14;;;;;;;74.63;46.33;;;;;;;6.93;98.12;101384.28;5027572;28;20044;-79
2021/04/20 03:06:42;;;;;;;73.30;45.05;;;;;;;6.91;97.74;101381.75;5027327;28;20075;-78
2021/04/20 03:09:10;;;;;;;72.68;44.03;;;;;;;6.87;100.00;101374.13;5025626;28;20064;-78
2021/04/20 03:11:41;;;;;;;79.83;45.13;;;;;;;6.80;100.00;101376.44;5026649;28;20044;-80
2021/04/20 03:14:08;;;;;;;76.03;45.10;;;;;;;6.93;100.00;101374.47;5041189;28;20631;-78
2021/04/20 03:16:35;;;;;;;65.05;42.42;;;;;;;6.97;97.78;101380.41;5035383;28;20045;-79
2021/04/20 03:19:04;;;;;;;78.22;47.22;;;;;;;6.98;98.06;101376.75;5032316;28;20477;-79
2021/04/20 03:21:30;;;;;;;69.03;45.20;;;;;;;7.01;97.67;101371.16;5051790;28;20485;-77
2021/04/20 03:23:56;;;;;;;71.75;45.22;;;;;;;6.98;97.36;101369.59;5043633;28;20813;-82
2021/04/20 03:26:24;;;;;;;70.63;43.20;;;;;;;6.94;98.94;101362.81;5031306;28;20041;-77
2021/04/20 03:28:57;;;;;;;74.55;43.92;;;;;;;6.98;100.00;101371.41;5039298;28;20091;-77
2021/04/20 03:31:24;;;;;;;72.13;44.70;;;;;;;6.98;98.32;101371.41;5035527;28;20520;-81
2021/04/20 03:34:25;;;;;;;74.50;47.80;;;;;;;7.02;98.64;101364.88;5043132;28;20041;-78
2021/04/20 03:37:00;;;;;;;74.40;48.72;;;;;;;7.04;98.08;101352.22;5039876;28;20053;-78
2021/04/20 03:39:28;;;;;;;71.43;44.55;;;;;;;7.04;97.44;101346.03;5025879;28;20061;-78
2021/04/20 03:42:02;;;;;;;69.82;44.72;;;;;;;7.08;97.78;101352.81;5029789;28;20041;-77
2021/04/20 03:44:32;;;;;;;74.95;47.63;;;;;;;7.09;98.92;101367.88;5043615;28;20128;-82
2021/04/20 03:47:08;;;;;;;75.22;46.53;;;;;;;7.06;99.86;101357.44;5046920;28;20037;-80
2021/04/20 03:49:36;;;;;;;73.82;42.78;;;;;;;6.94;100.00;101353.97;5028631;28;20045;-78
2021/04/20 03:52:07;;;;;;;77.22;47.70;;;;;;;6.89;100.00;101345.50;5040026;28;20520;-78
2021/04/20 03:54:35;;;;;;;74.57;44.90;;;;;;;6.98;100.00;101352.75;5041286;28;20045;-81
2021/04/20 03:57:02;;;;;;;75.88;46.95;;;;;;;7.05;98.49;101353.06;5025063;28;20045;-76
2021/04/20 03:59:31;;;;;;;74.22;47.42;;;;;;;7.05;97.90;101351.28;5012879;28;20045;-78
2021/04/20 04:02:00;;;;;;;76.80;48.00;;;;;;;6.97;99.33;101349.22;5007142;28;20041;-76
2021/04/20 04:04:29;;;;;;;78.43;49.77;;;;;;;7.01;98.45;101344.47;5026650;28;20068;-79
2021/04/20 04:06:55;;;;;;;80.43;49.13;;;;;;;7.03;98.35;101344.38;5040892;28;20044;-78
2021/04/20 04:09:20;;;;;;;73.35;46.08;;;;;;;6.94;100.00;101341.47;5044512;28;20493;-79
2021/04/20 04:11:53;;;;;;;75.07;47.05;;;;;;;6.91;100.00;101346.22;5026991;28;20071;-77
2021/04/20 04:14:20;;;;;;;77.95;48.80;;;;;;;6.89;99.08;101351.69;5045721;28;20116;-81
2021/04/20 04:16:48;;;;;;;81.45;49.28;;;;;;;6.88;99.25;101350.00;5042538;28;20055;-77
2021/04/20 04:19:15;;;;;;;80.25;49.40;;;;;;;6.79;100.00;101353.44;5042200;28;20052;-79
2021/04/20 04:21:46;;;;;;;80.32;48.67;;;;;;;6.74;100.00;101352.94;5030609;28;20056;-78
2021/04/20 04:24:18;;;;;;;80.45;46.65;;;;;;;6.78;99.13;101355.22;5022624;28;20050;-81
2021/04/20 04:26:57;;;;;;;77.32;46.78;;;;;;;6.71;99.16;101347.88;5041523;28;20041;-80
2021/04/20 04:29:26;;;;;;;77.03;46.83;;;;;;;6.70;98.08;101343.50;5040240;28;20072;-79
2021/04/20 04:31:53;;;;;;;82.90;49.20;;;;;;;6.61;98.38;101347.75;5043197;28;20041;-80
2021/04/20 04:34:21;;;;;;;78.72;48.10;;;;;;;6.53;99.21;101351.06;5043723;28;20485;-82
2021/04/20 04:36:48;;;;;;;85.03;50.95;;;;;;;6.45;99.54;101342.84;5049653;28;20039;-81
2021/04/20 04:39:17;;;;;;;83.25;51.97;;;;;;;6.45;99.15;101337.50;5041130;28;20045;-78
2021/04/20 04:41:49;;;;;;;89.70;52.00;;;;;;;6.44;100.00;101341.13;5044797;28;20049;-80
2021/04/20 04:44:15;;;;;;;86.50;51.58;;;;;;;6.39;100.00;101348.66;5030329;28;20501;-81
2021/04/20 04:46:41;;;;;;;85.82;51.90;;;;;;;6.30;100.00;101344.91;5031930;28;20136;-79
2021/04/20 04:49:09;;;;;;;88.40;52.42;;;;;;;6.22;100.00;101346.50;5030730;28;20689;-82
2021/04/20 04:51:38;;;;;;;90.07;53.90;;;;;;;6.26;100.00;101332.78;5028440;28;20048;-81
2021/04/20 04:54:08;;;;;;;84.18;50.35;;;;;;;6.24;100.00;101353.41;5035682;28;20041;-80
2021/04/20 04:56:35;;;;;;;90.20;51.95;;;;;;;6.20;100.00;101346.63;5026687;28;20040;-80
2021/04/20 04:59:01;;;;;;;91.68;54.40;;;;;;;6.20;100.00;101345.78;5045659;28;20033;-78
2021/04/20 05:01:28;;;;;;;101.68;56.80;;;;;;;6.23;100.00;101342.88;5029306;28;20484;-82
2021/04/20 05:03:53;;;;;;;92.50;54.70;;;;;;;6.27;100.00;101346.97;5027803;28;20044;-79
2021/04/20 05:06:21;;;;;;;87.00;51.88;;;;;;;6.23;100.00;101346.38;5028279;28;20045;-84
2021/04/20 05:08:47;;;;;;;87.63;52.20;;;;;;;6.21;100.00;101350.13;5045151;28;20048;-78
2021/04/20 05:11:14;;;;;;;90.60;52.92;;;;;;;6.21;100.00;101356.28;5040292;28;20041;-80
2021/04/20 05:13:40;;;;;;;87.57;53.08;;;;;;;6.21;100.00;101348.31;5041649;28;20044;-83
2021/04/20 05:16:06;;;;;;;90.30;53.47;;;;;;;6.25;100.00;101351.59;5045848;28;20465;-79
2021/04/20 05:18:34;;;;;;;84.30;48.42;;;;;;;6.21;100.00;101347.47;5040310;28;20135;-79
2021/04/20 05:21:00;;;;;;;81.32;48.47;;;;;;;6.23;100.00;101348.19;5012899;28;20080;-80
2021/04/20 05:23:29;;;;;;;84.70;50.67;;;;;;;6.30;100.00;101344.06;4992066;28;20045;-80
2021/04/20 05:25:54;;;;;;;82.63;48.80;;;;;;;6.28;100.00;101351.34;5030753;28;20044;-80
2021/04/20 05:28:20;;;;;;;85.32;52.00;;;;;;;6.34;100.00;101356.19;5011174;28;20121;-77
2021/04/20 05:30:46;;;;;;;80.05;50.30;;;;;;;6.41;100.00;101348.53;5047091;28;20044;-81
2021/04/20 05:33:14;;;;;;;85.65;52.30;;;;;;;6.45;100.00;101350.84;5023561;28;20056;-84
2021/04/20 05:35:41;;;;;;;86.90;52.72;;;;;;;6.51;100.00;101346.81;5043416;28;20558;-79
2021/04/20 05:38:06;;;;;;;78.78;49.83;;;;;;;6.55;100.00;101343.75;5026681;28;20041;-81
2021/04/20 05:40:36;;;;;;;81.78;49.65;;;;;;;6.64;100.00;101344.84;5045599;28;20045;-78
2021/04/20 05:43:02;;;;;;;77.78;47.42;;;;;;;6.71;99.98;101337.19;5024609;28;20063;-81
2021/04/20 05:45:30;;;;;;;77.40;46.95;;;;;;;6.76;99.46;101345.66;5044541;28;20127;-80
2021/04/20 05:47:58;;;;;;;78.13;45.70;;;;;;;6.83;99.42;101343.34;5023494;28;20083;-79
2021/04/20 05:50:30;;;;;;;70.63;46.75;;;;;;;6.89;99.36;101351.69;5041636;28;20103;-81
2021/04/20 05:52:57;;;;;;;79.03;48.45;;;;;;;6.98;99.22;101345.56;5043003;28;20044;-77
2021/04/20 05:55:23;;;;;;;75.55;48.53;;;;;;;7.12;98.80;101346.25;5048938;28;20049;-77
2021/04/20 05:57:52;;;;;;;78.97;49.47;;;;;;;7.20;98.79;101338.47;5033512;28;20118;-79
2021/04/20 06:00:19;;;;;;;76.75;47.17;;;;;;;7.30;96.82;101352.72;5016171;28;20049;-78
2021/04/20 06:02:47;;;;;;;72.50;48.78;;;;;;;7.46;96.63;101341.59;5048233;28;20037;-80
2021/04/20 06:05:15;;;;;;;76.95;46.22;;;;;;;7.59;99.30;101336.03;5028427;28;20057;-83
2021/04/20 06:07:43;;;;;;;77.55;46.13;;;;;;;7.74;99.24;101342.75;5045045;28;20056;-80
2021/04/20 06:10:09;;;;;;;75.80;48.80;;;;;;;7.87;96.45;101345.19;5042253;28;20055;-82
2021/04/20 06:12:36;;;;;;;72.93;46.22;;;;;;;7.95;96.15;101344.53;5045178;28;20288;-81
2021/04/20 06:15:03;;;;;;;70.10;44.20;;;;;;;8.02;97.54;101343.00;5041102;28;20508;-80
2021/04/20 06:17:29;;;;;;;68.80;47.92;;;;;;;8.09;95.16;101347.69;5027059;28;20093;-83
2021/04/20 06:19:55;;;;;;;66.28;45.22;;;;;;;8.23;94.91;101349.16;5046550;28;20543;-82
2021/04/20 06:22:21;;;;;;;74.05;45.08;;;;;;;8.29;94.87;101345.94;5048940;28;20044;-79
2021/04/20 06:24:47;;;;;;;67.03;42.35;;;;;;;8.42;94.04;101340.38;5029544;28;20133;-77
2021/04/20 06:27:14;;;;;;;65.80;43.40;;;;;;;8.48;92.87;101342.47;5042239;28;20434;-80
2021/04/20 06:29:40;;;;;;;63.35;42.58;;;;;;;8.56;92.72;101349.84;5044387;28;20049;-80
2021/04/20 06:32:06;;;;;;;69.40;42.35;;;;;;;8.68;94.33;101356.75;5050769;28;20048;-78
2021/04/20 06:34:33;;;;;;;64.45;42.08;;;;;;;8.78;93.58;101360.28;5029876;28;20129;-84
2021/04/20 06:36:59;;;;;;;66.60;43.50;;;;;;;8.90;92.99;101352.97;5029220;28;20045;-79
2021/04/20 06:39:25;;;;;;;61.95;40.88;;;;;;;9.01;93.03;101355.53;5033524;28;20053;-83
2021/04/20 06:41:53;;;;;;;67.82;44.83;;;;;;;9.02;91.65;101357.22;5046152;28;20385;-82
2021/04/20 06:44:25;;;;;;;69.78;45.67;;;;;;;9.11;92.17;101352.00;5040442;28;20492;-83
2021/04/20 06:46:56;;;;;;;67.68;38.47;;;;;;;9.23;93.14;101351.69;5044388;28;20112;-84
2021/04/20 06:49:32;;;;;;;63.67;42.72;;;;;;;9.23;90.86;101356.22;5024741;28;20038;-82
2021/04/20 06:52:02;;;;;;;64.20;43.58;;;;;;;9.31;89.52;101347.50;5047999;28;20485;-80
2021/04/20 06:54:33;;;;;;;62.10;41.97;;;;;;;9.33;90.33;101348.19;5039032;28;20061;-82
2021/04/20 06:57:07;;;;;;;64.32;41.92;;;;;;;9.46;91.72;101349.56;5042957;28;20076;-80
2021/04/20 07:00:02;;;;;;;62.63;41.83;;;;;;;9.61;90.74;101346.44;5043271;28;20037;-83
2021/04/20 07:02:50;;;;;;;66.82;41.55;;;;;;;9.70;89.85;101350.94;5024915;28;20445;-81
2021/04/20 07:05:24;;;;;;;60.95;42.65;;;;;;;9.76;87.80;101354.88;5026798;28;20033;-80
2021/04/20 07:08:28;;;;;;;62.83;41.75;;;;;;;9.83;85.29;101355.97;5046288;28;20123;-85
2021/04/20 07:10:55;;;;;;;65.05;41.38;;;;;;;9.98;88.64;101353.69;5016074;28;20045;-77
2021/04/20 07:13:24;;;;;;;62.88;42.33;;;;;;;10.12;87.61;101351.34;5011702;28;20041;-82
2021/04/20 07:15:57;;;;;;;57.58;40.58;;;;;;;10.23;84.89;101344.97;5036287;28;20041;-78
2021/04/20 07:18:53;;;;;;;62.03;43.35;;;;;;;10.32;85.07;101346.78;5047353;28;20091;-84
2021/04/20 07:21:26;;;;;;;62.65;42.92;;;;;;;10.41;84.53;101352.25;5049278;28;20187;-78
2021/04/20 07:24:23;;;;;;;62.85;41.25;;;;;;;10.51;83.62;101348.53;5038388;28;20052;-79
2021/04/20 07:27:06;;;;;;;59.50;39.85;;;;;;;10.64;82.66;101348.16;5016819;28;20893;-86
2021/04/20 07:29:38;;;;;;;56.00;38.90;;;;;;;10.70;82.10;101344.84;5027638;28;20056;-83
2021/04/20 07:32:22;;;;;;;55.38;36.53;;;;;;;10.79;81.05;101343.13;5048914;28;20118;-82
2021/04/20 07:34:51;;;;;;;59.97;39.70;;;;;;;10.88;79.98;101342.22;5025474;28;20045;-80
2021/04/20 07:37:23;;;;;;;59.70;40.85;;;;;;;11.03;80.33;101340.66;5043035;28;20041;-84
2021/04/20 07:40:08;;;;;;;55.80;39.70;;;;;;;11.12;80.84;101348.81;5030885;28;20045;-84
2021/04/20 07:42:45;;;;;;;56.90;40.17;;;;;;;11.21;79.41;101343.34;5033195;28;20131;-81
2021/04/20 07:45:21;;;;;;;58.05;37.78;;;;;;;11.39;79.61;101340.63;5047426;28;20057;-84
2021/04/20 07:47:51;;;;;;;52.55;36.53;;;;;;;11.52;77.87;101343.75;5050488;28;20132;-80
2021/04/20 07:50:29;;;;;;;54.40;38.10;;;;;;;11.60;78.12;101339.44;5029094;28;20132;-84
2021/04/20 07:53:09;;;;;;;56.10;38.05;;;;;;;11.64;78.33;101338.13;5041377;28;20037;-84
2021/04/20 07:55:47;;;;;;;48.78;35.08;;;;;;;11.65;76.51;101343.34;5032946;28;20039;-81
2021/04/20 07:58:19;;;;;;;46.78;34.22;;;;;;;11.75;75.97;101351.31;5031167;28;20068;-83
2021/04/20 08:01:12;;;;;;;51.40;34.70;;;;;;;11.80;75.38;101334.72;5043391;28;20511;-81
2021/04/20 08:03:44;;;;;;;47.13;34.20;;;;;;;11.87;75.20;101343.84;5026478;28;20779;-83
2021/04/20 08:06:17;;;;;;;52.85;36.25;;;;;;;11.91;76.21;101340.69;5049003;28;20052;-81
2021/04/20 08:08:57;;;;;;;41.80;29.83;;;;;;;12.01;73.32;101329.78;5034563;28;20033;-84
2021/04/20 08:11:29;;;;;;;42.85;30.63;;;;;;;12.12;73.24;101342.13;5018673;28;20048;-81
2021/04/20 08:14:13;;;;;;;40.83;30.05;;;;;;;12.23;72.99;101339.16;5029037;28;20068;-85
2021/04/20 08:17:03;;;;;;;44.95;32.38;;;;;;;12.29;73.63;101337.66;5028145;28;20043;-81
2021/04/20 08:19:52;;;;;;;48.40;35.58;;;;;;;12.30;74.48;101329.41;5011050;28;20107;-82
2021/04/20 08:22:19;;;;;;;49.95;35.25;;;;;;;12.36;74.23;101339.53;5046305;28;20029;-83
2021/04/20 08:24:51;;;;;;;48.97;34.40;;;;;;;12.43;73.56;101328.97;5043375;28;20127;-79
2021/04/20 08:27:28;;;;;;;47.40;34.47;;;;;;;12.47;73.96;101324.94;5042921;28;20485;-79
2021/04/20 08:29:58;;;;;;;46.60;33.45;;;;;;;12.61;73.10;101326.16;5043117;28;20568;-83
2021/04/20 08:32:27;;;;;;;42.25;32.38;;;;;;;12.67;72.32;101328.19;5039976;28;20048;-81
2021/04/20 08:34:58;;;;;;;;;;;;;;;12.78;72.17;101330.56;5026412;28;20060;-77
2021/04/20 08:37:47;;;;;;;43.97;31.70;;;;;;;12.80;72.65;101333.09;5056658;28;19934;-79
2021/04/20 08:40:13;;;;;;;;;;;;;;;13.01;72.88;101321.84;5050930;28;20105;-78
2021/04/20 08:42:59;;;;;;;41.50;29.63;;;;;;;13.02;72.15;101329.75;5035427;28;19924;-78
2021/04/20 08:45:24;;;;;;;42.55;29.75;;;;;;;13.09;71.19;101327.25;5039902;28;20401;-81
2021/04/20 08:47:58;;;;;;;41.83;30.27;;;;;;;13.18;71.25;101328.94;5027345;28;20053;-82
2021/04/20 08:50:27;;;;;;;40.90;29.67;;;;;;;13.25;71.85;101321.00;5031677;28;21029;-80
2021/04/20 08:53:17;;;;;;;38.78;28.27;;;;;;;13.36;71.28;101325.25;5010734;28;20126;-82
2021/04/20 08:55:56;;;;;;;44.58;31.40;;;;;;;13.41;70.57;101328.28;5036304;28;20185;-81
2021/04/20 08:58:22;;;;;;;;;;;;;;;13.32;70.77;101328.28;5016246;28;20124;-83
2021/04/20 09:01:14;;;;;;;44.70;31.33;;;;;;;13.20;71.18;101326.06;5042177;28;20361;-80
2021/04/20 09:04:01;;;;;;;41.10;30.75;;;;;;;13.37;71.39;101330.47;5018603;28;20386;-81
2021/04/20 09:06:59;;;;;;;41.03;31.50;;;;;;;13.57;70.74;101320.16;5017580;28;20045;-84
2021/04/20 09:09:29;;;;;;;39.03;29.75;;;;;;;13.63;70.11;101322.16;5025703;28;20482;-87
2021/04/20 09:12:05;;;;;;;39.22;30.00;;;;;;;13.65;70.10;101325.53;5046011;28;20072;-82
2021/04/20 09:14:36;;;;;;;41.67;30.45;;;;;;;13.80;71.77;101322.13;5043370;28;20291;-81
2021/04/20 09:17:36;;;;;;;41.78;30.08;;;;;;;13.95;69.77;101320.41;5042871;28;20047;-84
2021/04/20 09:20:11;;;;;;;36.50;27.63;;;;;;;13.92;68.55;101326.16;5031544;28;20534;-83
2021/04/20 09:23:03;;;;;;;37.83;27.83;;;;;;;14.00;68.48;101318.88;5044277;28;20045;-79
2021/04/20 09:25:54;;;;;;;33.70;25.00;;;;;;;14.02;67.99;101312.47;5025182;28;20094;-81
2021/04/20 09:28:37;;;;;;;35.85;25.95;;;;;;;14.11;68.33;101320.34;5038375;28;20041;-81
2021/04/20 09:31:12;;;;;;;33.88;26.08;;;;;;;14.15;67.51;101321.66;5044087;28;20102;-86
2021/04/20 09:33:46;;;;;;;33.40;25.23;;;;;;;14.14;67.30;101325.41;5016433;28;20489;-84
2021/04/20 09:36:13;;;;;;;32.00;24.63;;;;;;;14.29;68.01;101313.88;5027312;28;20120;-86
2021/04/20 09:38:42;;;;;;;30.95;23.90;;;;;;;14.45;66.20;101321.91;5033614;28;20040;-81
2021/04/20 09:41:09;;;;;;;30.83;23.42;;;;;;;14.49;66.22;101319.69;5045834;28;20072;-80
2021/04/20 09:43:55;;;;;;;29.35;22.05;;;;;;;14.64;66.13;101318.78;5030934;28;20511;-84
2021/04/20 09:46:30;;;;;;;29.38;21.88;;;;;;;14.68;64.90;101313.88;5043704;28;20075;-82
2021/04/20 09:49:06;;;;;;;29.08;23.30;;;;;;;14.63;65.85;101322.50;5039734;28;20091;-86
2021/04/20 09:51:38;;;;;;;28.67;22.35;;;;;;;14.81;65.22;101315.97;5003177;28;20473;-87
2021/04/20 09:54:12;;;;;;;29.90;22.42;;;;;;;14.94;65.15;101315.38;5030261;28;20033;-81
2021/04/20 09:56:44;;;;;;;29.23;22.48;;;;;;;14.83;65.42;101324.75;5052795;28;20095;-81
2021/04/20 09:59:17;;;;;;;29.35;22.63;;;;;;;14.73;63.55;101313.31;5030724;28;20037;-80
2021/04/20 10:01:58;;;;;;;27.40;21.83;;;;;;;14.65;65.28;101316.91;5020809;28;20041;-84
2021/04/20 10:04:42;;;;;;;29.92;21.90;;;;;;;14.65;64.76;101312.34;5038364;28;20056;-82
2021/04/20 10:07:29;;;;;;;28.98;22.95;;;;;;;14.51;64.77;101309.53;5023851;28;20093;-78
2021/04/20 10:10:25;;;;;;;27.38;22.52;;;;;;;14.44;65.58;101315.66;5049521;28;20103;-79
2021/04/20 10:13:11;;;;;;;30.60;23.30;;;;;;;14.56;66.04;101310.72;5030843;28;20429;-85
2021/04/20 10:15:47;;;;;;;30.17;23.67;;;;;;;14.39;66.19;101314.50;5033207;28;20381;-83
2021/04/20 10:18:26;;;;;;;32.17;24.50;;;;;;;14.45;67.59;101308.41;5023241;28;20052;-80
2021/04/20 10:21:19;;;;;;;29.48;22.10;;;;;;;14.49;64.92;101312.41;5039563;28;20492;-79
2021/04/20 10:23:53;;;;;;;30.58;24.05;;;;;;;14.45;64.44;101309.22;4998429;28;20034;-84
2021/04/20 10:26:21;;;;;;;30.83;22.98;;;;;;;14.63;65.03;101308.97;5042010;28;20063;-83
2021/04/20 10:29:31;;;;;;;28.48;23.75;;;;;;;14.81;64.09;101299.75;5046821;28;20101;-82
2021/04/20 10:32:05;;;;;;;30.00;22.58;;;;;;;15.04;64.92;101300.56;5017202;28;20037;-79
2021/04/20 10:34:33;;;;;;;27.33;21.65;;;;;;;15.16;63.87;101295.59;5029614;28;20408;-79
2021/04/20 10:37:03;;;;;;;27.60;21.40;;;;;;;15.19;62.23;101294.38;5040301;28;20051;-85
2021/04/20 10:39:30;;;;;;;26.58;20.13;;;;;;;15.12;63.34;101289.72;5042760;28;20044;-82
2021/04/20 10:41:57;;;;;;;26.95;20.73;;;;;;;15.09;62.12;101289.25;5030324;28;20033;-87
2021/04/20 10:44:25;;;;;;;26.50;21.42;;;;;;;15.08;62.36;101290.28;5052242;28;20041;-87
2021/04/20 10:46:56;;;;;;;27.27;21.05;;;;;;;15.08;62.17;101287.56;5033941;28;20056;-84
2021/04/20 10:49:33;;;;;;;28.60;20.95;;;;;;;15.11;62.21;101290.75;5029188;28;20057;-82
2021/04/20 10:51:59;;;;;;;27.75;18.40;;;;;;;15.01;60.14;101284.72;5051889;28;20048;-84
2021/04/20 10:54:38;;;;;;;27.45;20.20;;;;;;;15.16;63.65;101278.53;5032151;28;20122;-81
2021/04/20 10:57:05;;;;;;;25.98;19.67;;;;;;;15.30;61.99;101277.72;5031558;28;20073;-83
2021/04/20 10:59:34;;;;;;;22.90;19.08;;;;;;;15.53;62.98;101264.97;5053798;28;20076;-76
2021/04/20 11:02:04;;;;;;;37.90;24.33;;;;;;;15.87;60.94;101263.63;5027859;28;20052;-83
2021/04/20 11:04:36;;;;;;;24.33;19.52;;;;;;;15.82;60.41;101266.03;5025833;28;20048;-79
2021/04/20 11:07:03;;;;;;;22.73;18.35;;;;;;;15.83;59.45;101267.75;5025437;28;20072;-83
2021/04/20 11:09:33;;;;;;;22.83;18.45;;;;;;;15.87;59.56;101260.91;5053938;28;20040;-83
2021/04/20 11:12:22;;;;;;;23.42;17.77;;;;;;;15.91;59.73;101259.53;5031526;28;20037;-80
2021/04/20 11:14:50;;;;;;;23.23;17.45;;;;;;;15.88;61.51;101259.03;5029930;28;20041;-82
2021/04/20 11:17:43;;;;;;;22.88;17.45;;;;;;;15.82;60.33;101266.03;5030529;28;20060;-84
2021/04/20 11:20:43;;;;;;;23.17;17.92;;;;;;;15.82;60.53;101259.78;5037849;28;20155;-83
2021/04/20 11:23:09;;;;;;;24.85;19.30;;;;;;;15.81;60.69;101260.84;5030383;28;20501;-83
2021/04/20 11:26:11;;;;;;;22.70;18.42;;;;;;;15.96;61.66;101250.81;5049674;28;20131;-77
2021/04/20 11:28:46;;;;;;;22.92;18.27;;;;;;;16.13;59.85;101246.03;5021854;28;20398;-79
2021/04/20 11:31:40;;;;;;;24.38;18.98;;;;;;;16.22;60.21;101253.03;5026613;28;20178;-78
2021/04/20 11:34:22;;;;;;;23.60;18.80;;;;;;;16.52;58.87;101251.09;5028690;28;20038;-84
2021/04/20 11:36:51;;;;;;;22.80;17.95;;;;;;;16.43;58.64;101252.25;5040587;28;20040;-87